Government of Jersey

Home Log in

Channel Islands Terminal Aerodrome Forecasts (TAFs)

Jersey Airport - EGJJ

EGJJ 061700Z 0618/0703 27018KT 9999 FEW010 BKN025 TEMPO 0618/0619 27020G30KT TEMPO 0618/0703 7000 SHRA PROB30 TEMPO 0618/0703 3000 +SHRA BKN010 BKN020CB BECMG 0701/0703 31008KT=

Guernsey Airport - EGJB

EGJB 061700Z 0618/0703 27018KT 9999 FEW010 BKN025 TEMPO 0618/0703 7000 SHRA PROB30 TEMPO 0618/0703 3000 +SHRA BKN010 BKN020CB BECMG 0701/0703 32008KT=

Alderney Airport - EGJA

EGJA 051834Z 0518/0600 CNL=